Time;durP1;ratioP1;P1;durP2;ratioP2;P2;SDS_P1;SDS_P2;PMS_P1;PMS_P2;Temp;Humidity;BMP_temperature;BMP_pressure;BME280_temperature;BME280_humidity;BME280_pressure;Samples;Min_cycle;Max_cycle;Signal;HPM_P1;HPM_P2
2021/04/11 00:02:37;;;;;;;4.80;2.73;;;9.60;99.90;;;;;;5055509;28;20495;-71
2021/04/11 00:05:24;;;;;;;5.43;3.17;;;9.50;99.90;;;;;;5062794;28;20436;-70
2021/04/11 00:08:11;;;;;;;6.30;2.93;;;9.40;99.90;;;;;;5060225;28;20440;-70
2021/04/11 00:10:59;;;;;;;4.80;2.60;;;9.30;99.90;;;;;;5057952;28;20455;-71
2021/04/11 00:13:44;;;;;;;4.00;2.80;;;9.00;99.90;;;;;;5061307;28;20448;-71
2021/04/11 00:16:29;;;;;;;5.67;2.77;;;9.00;99.90;;;;;;5059511;28;20437;-71
2021/04/11 00:19:15;;;;;;;3.57;2.60;;;8.90;99.90;;;;;;5066518;28;20995;-71
2021/04/11 00:22:00;;;;;;;4.37;2.77;;;8.90;99.90;;;;;;5063737;28;20512;-70
2021/04/11 00:24:45;;;;;;;4.03;2.60;;;8.70;99.90;;;;;;5061975;28;20805;-71
2021/04/11 00:27:30;;;;;;;3.93;2.80;;;8.60;99.90;;;;;;5055291;28;20451;-71
2021/04/11 00:30:16;;;;;;;14.43;2.73;;;8.70;99.90;;;;;;5061273;28;20426;-71
2021/04/11 00:33:04;;;;;;;4.80;2.60;;;8.70;99.90;;;;;;5062769;28;20482;-71
2021/04/11 00:35:54;;;;;;;4.20;2.77;;;8.40;99.90;;;;;;5059379;28;20506;-70
2021/04/11 00:38:41;;;;;;;10.03;3.00;;;8.50;99.90;;;;;;5061466;28;20466;-69
2021/04/11 00:41:29;;;;;;;5.27;3.10;;;8.40;99.90;;;;;;5063079;28;20864;-70
2021/04/11 00:44:14;;;;;;;4.03;2.40;;;8.40;99.90;;;;;;5066930;28;20458;-71
2021/04/11 00:47:00;;;;;;;4.47;2.97;;;8.30;99.90;;;;;;5063996;28;20487;-70
2021/04/11 00:49:47;;;;;;;6.53;2.97;;;8.40;99.90;;;;;;5062579;28;20950;-70
2021/04/11 00:52:33;;;;;;;10.43;2.70;;;8.50;99.90;;;;;;5062598;28;20489;-69
2021/04/11 00:55:20;;;;;;;5.23;3.30;;;8.50;99.90;;;;;;5064223;28;20815;-70
2021/04/11 00:58:06;;;;;;;7.00;3.80;;;8.40;99.90;;;;;;5066695;28;20449;-71
2021/04/11 01:00:51;;;;;;;6.47;3.73;;;8.30;99.90;;;;;;5068842;28;20440;-70
2021/04/11 01:03:38;;;;;;;5.17;3.70;;;8.30;99.90;;;;;;5066417;28;20824;-71
2021/04/11 01:06:28;;;;;;;5.63;3.50;;;8.30;99.90;;;;;;5062696;28;20429;-71
2021/04/11 01:09:20;;;;;;;4.43;3.40;;;8.50;99.90;;;;;;5064038;28;20508;-70
2021/04/11 01:12:10;;;;;;;4.90;3.67;;;8.50;99.90;;;;;;5063002;28;20482;-71
2021/04/11 01:14:55;;;;;;;8.47;3.63;;;8.40;99.90;;;;;;5066147;28;21289;-71
2021/04/11 01:17:40;;;;;;;4.70;3.70;;;8.40;99.90;;;;;;5056645;28;20447;-70
2021/04/11 01:20:27;;;;;;;5.13;3.50;;;8.40;99.90;;;;;;5062164;28;20526;-71
2021/04/11 01:23:34;;;;;;;6.10;4.07;;;8.20;99.90;;;;;;5060465;28;20928;-70
2021/04/11 01:26:21;;;;;;;8.00;3.93;;;8.30;99.90;;;;;;5055058;28;20992;-70
2021/04/11 01:29:08;;;;;;;4.97;3.30;;;8.30;99.90;;;;;;5062676;28;20913;-70
2021/04/11 01:31:53;;;;;;;5.03;3.50;;;8.30;99.90;;;;;;5064110;28;20442;-70
2021/04/11 01:34:39;;;;;;;6.13;3.77;;;8.40;99.90;;;;;;5063667;28;20454;-71
2021/04/11 01:37:28;;;;;;;6.90;3.90;;;8.50;99.90;;;;;;5067741;28;20447;-70
2021/04/11 01:40:15;;;;;;;6.27;3.70;;;8.60;99.90;;;;;;5068368;28;20915;-71
2021/04/11 01:43:03;;;;;;;5.73;3.60;;;8.60;99.90;;;;;;5063067;28;20500;-70
2021/04/11 01:45:48;;;;;;;5.00;3.97;;;8.50;99.90;;;;;;5064154;28;20418;-71
2021/04/11 01:48:33;;;;;;;5.67;3.80;;;8.50;99.90;;;;;;5061503;28;20439;-70
2021/04/11 01:51:31;;;;;;;5.70;3.87;;;8.50;99.90;;;;;;5060634;28;20524;-71
2021/04/11 01:54:22;;;;;;;7.60;4.03;;;8.40;99.90;;;;;;5067479;28;20511;-71
2021/04/11 01:57:10;;;;;;;5.40;3.90;;;8.40;99.90;;;;;;5056885;28;20433;-70
2021/04/11 02:00:06;;;;;;;5.10;3.80;;;8.40;99.90;;;;;;5061265;28;20531;-71
2021/04/11 02:02:54;;;;;;;7.00;4.20;;;8.40;99.90;;;;;;5063303;28;20940;-71
2021/04/11 02:05:40;;;;;;;11.80;4.17;;;8.50;99.90;;;;;;5060684;28;20451;-70
2021/04/11 02:08:26;;;;;;;11.63;4.10;;;8.60;99.90;;;;;;5058219;28;20463;-70
2021/04/11 02:11:11;;;;;;;6.37;4.10;;;8.50;99.90;;;;;;5054240;28;21170;-71
2021/04/11 02:13:59;;;;;;;6.80;4.10;;;8.50;99.90;;;;;;5065667;28;20479;-71
2021/04/11 02:16:45;;;;;;;12.00;3.77;;;8.50;99.90;;;;;;5059616;28;20425;-71
2021/04/11 02:19:31;;;;;;;4.80;3.73;;;8.50;99.90;;;;;;5062126;28;20475;-70
2021/04/11 02:22:20;;;;;;;6.50;4.23;;;8.60;99.90;;;;;;5055430;28;20430;-70
2021/04/11 02:25:08;;;;;;;4.77;3.90;;;8.70;99.90;;;;;;5058463;28;21003;-69
2021/04/11 02:27:54;;;;;;;6.47;3.97;;;8.70;99.90;;;;;;5063843;28;20451;-71
2021/04/11 02:30:44;;;;;;;6.90;3.27;;;8.70;99.90;;;;;;5060661;28;21073;-70
2021/04/11 02:33:30;;;;;;;5.27;3.77;;;8.80;99.90;;;;;;5057844;28;20800;-70
2021/04/11 02:36:15;;;;;;;6.27;3.83;;;8.50;99.90;;;;;;5054506;28;20494;-70
2021/04/11 02:39:06;;;;;;;8.77;4.30;;;8.60;99.90;;;;;;5053342;28;20579;-70
2021/04/11 02:41:52;;;;;;;7.43;4.10;;;8.70;99.90;;;;;;5062790;28;20514;-71
2021/04/11 02:44:38;;;;;;;7.00;3.93;;;8.70;99.90;;;;;;5060734;28;20480;-70
2021/04/11 02:47:24;;;;;;;9.00;3.97;;;8.90;99.90;;;;;;5060518;28;20429;-70
2021/04/11 02:50:12;;;;;;;5.83;5.00;;;8.70;99.90;;;;;;5064063;28;20803;-70
2021/04/11 02:53:02;;;;;;;8.70;4.77;;;8.60;99.90;;;;;;5067279;28;20457;-70
2021/04/11 02:55:47;;;;;;;6.53;4.57;;;8.50;99.90;;;;;;5065492;28;20462;-70
2021/04/11 02:58:33;;;;;;;5.90;4.60;;;8.50;99.90;;;;;;5062631;28;20505;-71
2021/04/11 03:01:22;;;;;;;8.77;4.67;;;8.60;99.90;;;;;;5060969;28;20548;-70
2021/04/11 03:04:07;;;;;;;10.63;5.00;;;8.80;99.90;;;;;;5054288;28;20482;-71
2021/04/11 03:06:57;;;;;;;6.17;4.40;;;8.80;99.90;;;;;;5056979;28;20443;-71
2021/04/11 03:09:47;;;;;;;8.13;4.63;;;8.90;99.90;;;;;;5062558;28;20428;-70
2021/04/11 03:12:32;;;;;;;13.27;5.53;;;9.00;99.90;;;;;;5062882;28;23205;-69
2021/04/11 03:15:19;;;;;;;6.23;4.57;;;9.10;99.90;;;;;;5059862;28;20872;-70
2021/04/11 03:18:05;;;;;;;8.97;4.30;;;9.20;99.90;;;;;;5058677;28;20931;-71
2021/04/11 03:20:51;;;;;;;5.30;3.93;;;9.20;99.90;;;;;;5063560;28;20495;-70
2021/04/11 03:23:38;;;;;;;7.33;5.40;;;9.20;99.90;;;;;;5060551;28;21057;-70
2021/04/11 03:26:28;;;;;;;8.53;4.70;;;9.10;99.90;;;;;;5061124;28;20417;-70
2021/04/11 03:29:19;;;;;;;14.20;4.90;;;9.10;99.90;;;;;;5062555;28;20490;-70
2021/04/11 03:32:09;;;;;;;6.93;4.37;;;9.10;99.90;;;;;;5060111;28;20470;-70
2021/04/11 03:34:56;;;;;;;7.80;4.00;;;9.10;99.90;;;;;;5063367;28;21124;-71
2021/04/11 03:37:43;;;;;;;6.60;3.90;;;9.20;99.90;;;;;;5057988;28;20441;-71
2021/04/11 03:40:32;;;;;;;7.17;4.07;;;9.20;99.90;;;;;;5061297;28;20453;-70
2021/04/11 03:43:22;;;;;;;8.30;5.40;;;9.30;99.90;;;;;;5063851;28;20515;-71
2021/04/11 03:46:13;;;;;;;7.23;5.07;;;9.40;99.90;;;;;;5060079;28;20417;-70
2021/04/11 03:49:06;;;;;;;6.97;4.70;;;9.40;99.90;;;;;;5056682;28;20444;-71
2021/04/11 03:51:54;;;;;;;7.83;5.00;;;9.50;99.90;;;;;;5061177;28;20994;-71
2021/04/11 03:54:41;;;;;;;9.47;4.73;;;9.50;99.90;;;;;;5064978;28;20453;-70
2021/04/11 03:57:30;;;;;;;6.90;4.57;;;9.50;99.90;;;;;;5066103;28;20855;-70
2021/04/11 04:00:18;;;;;;;5.20;4.33;;;9.60;99.90;;;;;;5067730;28;20518;-71
2021/04/11 04:03:09;;;;;;;8.90;4.90;;;9.50;99.90;;;;;;5066102;28;20941;-70
2021/04/11 04:05:54;;;;;;;9.17;6.00;;;9.60;99.90;;;;;;5068480;28;20458;-70
2021/04/11 04:08:40;;;;;;;11.87;8.10;;;9.50;99.90;;;;;;5062213;28;21042;-70
2021/04/11 04:11:47;;;;;;;14.70;10.00;;;9.40;99.90;;;;;;5062862;28;20476;-70
2021/04/11 04:14:49;;;;;;;14.20;8.37;;;9.30;99.90;;;;;;5061249;28;20575;-70
2021/04/11 04:17:43;;;;;;;11.93;8.50;;;9.40;99.90;;;;;;5067192;28;20504;-69
2021/04/11 04:20:38;;;;;;;12.80;8.47;;;9.40;99.90;;;;;;5060487;28;20525;-71
2021/04/11 04:23:36;;;;;;;12.97;8.30;;;9.40;99.90;;;;;;5063686;28;20463;-70
2021/04/11 04:26:37;;;;;;;15.97;9.73;;;9.40;99.90;;;;;;5056721;28;20429;-70
2021/04/11 04:29:29;;;;;;;12.20;8.60;;;9.40;99.90;;;;;;5064768;28;20942;-70
2021/04/11 04:32:28;;;;;;;13.63;8.10;;;9.40;99.90;;;;;;5059568;28;20523;-70
2021/04/11 04:35:22;;;;;;;13.97;8.33;;;9.50;99.90;;;;;;5063840;28;20486;-71
2021/04/11 04:38:17;;;;;;;12.80;7.90;;;9.60;99.90;;;;;;5067351;28;20461;-71
2021/04/11 04:41:10;;;;;;;11.60;7.80;;;9.60;99.90;;;;;;5062056;28;20485;-71
2021/04/11 04:44:00;;;;;;;10.10;7.63;;;9.50;99.90;;;;;;5060414;28;20462;-70
2021/04/11 04:46:49;;;;;;;11.87;7.77;;;9.50;99.90;;;;;;5065551;28;20459;-71
2021/04/11 04:49:43;;;;;;;11.47;7.93;;;9.50;99.90;;;;;;5068956;28;20438;-71
2021/04/11 04:52:31;;;;;;;13.37;9.40;;;9.40;99.90;;;;;;5063760;28;20516;-70
2021/04/11 04:55:20;;;;;;;15.23;10.10;;;9.30;99.90;;;;;;5062920;28;20563;-71
2021/04/11 04:58:11;;;;;;;12.93;8.83;;;9.20;99.90;;;;;;5058630;28;20505;-70
2021/04/11 05:01:00;;;;;;;10.50;8.40;;;9.20;99.90;;;;;;5057214;28;21332;-70
2021/04/11 05:03:48;;;;;;;10.40;8.97;;;9.20;99.90;;;;;;5066494;28;20457;-70
2021/04/11 05:06:38;;;;;;;11.70;8.70;;;9.20;99.90;;;;;;5061642;28;20455;-70
2021/04/11 05:09:28;;;;;;;13.77;8.93;;;9.30;99.90;;;;;;5062787;28;20493;-71
2021/04/11 05:12:19;;;;;;;10.63;7.13;;;9.30;99.90;;;;;;5065358;28;20475;-70
2021/04/11 05:15:09;;;;;;;10.87;7.83;;;9.40;99.90;;;;;;5065894;28;20461;-71
2021/04/11 05:17:58;;;;;;;8.27;5.97;;;9.50;99.90;;;;;;5061684;28;20501;-71
2021/04/11 05:20:50;;;;;;;10.57;7.50;;;9.50;99.90;;;;;;5059841;28;20454;-70
2021/04/11 05:23:41;;;;;;;6.77;5.97;;;9.60;99.90;;;;;;5062883;28;20433;-71
2021/04/11 05:26:31;;;;;;;7.77;7.00;;;9.70;99.90;;;;;;5066549;28;20968;-71
2021/04/11 05:29:23;;;;;;;8.20;6.17;;;9.70;99.90;;;;;;5065544;28;20445;-71
2021/04/11 05:32:10;;;;;;;6.67;5.30;;;9.80;99.90;;;;;;5063203;28;21033;-72
2021/04/11 05:34:56;;;;;;;11.30;7.13;;;9.80;99.90;;;;;;5068562;28;20449;-70
2021/04/11 05:37:52;;;;;;;11.60;7.27;;;9.80;99.90;;;;;;5061127;28;20446;-71
2021/04/11 05:40:42;;;;;;;12.20;6.20;;;9.80;99.90;;;;;;5066399;28;20490;-70
2021/04/11 05:43:35;;;;;;;8.50;6.30;;;9.90;99.90;;;;;;5066815;28;20459;-70
2021/04/11 05:46:24;;;;;;;9.40;6.63;;;10.00;99.90;;;;;;5061176;28;20749;-71
2021/04/11 05:49:12;;;;;;;11.60;6.20;;;10.00;99.90;;;;;;5053247;28;20499;-71
2021/04/11 05:52:02;;;;;;;7.70;6.00;;;10.10;99.90;;;;;;5062128;28;20472;-70
2021/04/11 05:54:51;;;;;;;7.97;5.97;;;10.30;99.90;;;;;;5064298;28;21842;-71
2021/04/11 05:57:42;;;;;;;7.73;5.70;;;10.40;99.90;;;;;;5059565;28;20937;-70
2021/04/11 06:00:30;;;;;;;8.90;6.23;;;10.50;99.90;;;;;;5061352;28;20426;-70
2021/04/11 06:03:20;;;;;;;10.13;6.80;;;10.70;99.90;;;;;;5058439;28;20479;-70
2021/04/11 06:06:16;;;;;;;6.77;5.20;;;10.80;99.90;;;;;;5055478;28;20570;-70
2021/04/11 06:09:05;;;;;;;7.37;6.10;;;10.90;99.90;;;;;;5063864;28;20451;-71
2021/04/11 06:11:58;;;;;;;9.63;5.60;;;11.00;99.90;;;;;;5060071;28;20457;-71
2021/04/11 06:14:52;;;;;;;8.47;5.70;;;11.20;99.90;;;;;;5056809;28;20486;-70
2021/04/11 06:17:40;;;;;;;7.77;5.33;;;11.30;99.90;;;;;;5065787;28;20433;-71
2021/04/11 06:20:27;;;;;;;7.17;4.90;;;11.50;99.90;;;;;;5057969;28;20465;-71
2021/04/11 06:23:19;;;;;;;9.97;5.30;;;11.60;99.90;;;;;;5063146;28;20499;-71
2021/04/11 06:26:09;;;;;;;9.20;4.63;;;11.80;99.90;;;;;;5063276;28;20417;-71
2021/04/11 06:29:01;;;;;;;7.90;5.10;;;11.90;99.90;;;;;;5062756;28;20459;-71
2021/04/11 06:31:53;;;;;;;7.57;4.30;;;11.80;99.90;;;;;;5058618;28;20612;-71
2021/04/11 06:34:43;;;;;;;7.93;4.50;;;11.80;99.90;;;;;;5062255;28;20475;-71
2021/04/11 06:37:30;;;;;;;14.30;5.03;;;11.80;99.90;;;;;;5062962;28;20522;-70
2021/04/11 06:40:37;;;;;;;6.37;5.43;;;11.90;99.90;;;;;;5066290;28;20459;-71
2021/04/11 06:43:53;;;;;;;9.87;5.77;;;12.00;99.90;;;;;;5064292;28;20517;-71
2021/04/11 06:46:51;;;;;;;8.93;4.97;;;12.00;99.90;;;;;;5058634;28;20616;-71
2021/04/11 06:50:09;;;;;;;5.70;4.70;;;12.10;99.90;;;;;;5059299;28;20932;-71
2021/04/11 06:53:16;;;;;;;7.47;3.93;;;12.20;99.90;;;;;;5058774;28;21015;-71
2021/04/11 06:56:34;;;;;;;6.07;2.80;;;12.40;99.90;;;;;;5053342;28;20583;-71
2021/04/11 06:59:32;;;;;;;4.43;2.90;;;12.70;99.90;;;;;;5060829;28;20458;-71
2021/04/11 07:03:11;;;;;;;6.20;2.73;;;12.80;99.90;;;;;;5059333;28;21019;-71
2021/04/11 07:06:29;;;;;;;6.77;2.20;;;13.20;99.90;;;;;;5058692;28;20452;-71
2021/04/11 07:09:43;;;;;;;7.37;2.50;;;13.30;99.90;;;;;;5034926;28;20454;-71
2021/04/11 07:13:05;;;;;;;7.03;2.90;;;13.40;99.90;;;;;;5061901;28;20466;-72
2021/04/11 07:16:29;;;;;;;3.77;2.00;;;13.50;99.90;;;;;;5060599;28;20436;-71
2021/04/11 07:19:38;;;;;;;4.80;2.63;;;13.60;99.90;;;;;;5060581;28;20418;-72
2021/04/11 07:22:58;;;;;;;4.13;2.20;;;13.70;99.90;;;;;;5059104;28;20489;-71
2021/04/11 07:26:17;;;;;;;4.77;2.03;;;13.70;99.90;;;;;;5059052;28;20508;-71
2021/04/11 07:29:26;;;;;;;5.60;2.30;;;13.80;99.90;;;;;;5055434;28;20437;-72
2021/04/11 07:32:31;;;;;;;4.60;2.63;;;13.80;99.90;;;;;;5053592;28;20506;-72
2021/04/11 07:35:36;;;;;;;17.77;2.67;;;13.90;99.90;;;;;;5064212;28;20458;-72
2021/04/11 07:38:34;;;;;;;14.20;2.40;;;13.90;99.90;;;;;;5056424;28;20484;-71
2021/04/11 07:41:48;;;;;;;4.60;2.27;;;13.90;99.90;;;;;;5063856;28;20418;-71
2021/04/11 07:44:51;;;;;;;5.50;2.93;;;13.90;99.90;;;;;;5057625;28;20474;-71
2021/04/11 07:48:02;;;;;;;5.93;2.33;;;13.90;99.90;;;;;;5063308;28;20829;-71
2021/04/11 07:51:06;;;;;;;5.83;2.67;;;13.80;99.90;;;;;;5066075;28;20561;-71
2021/04/11 07:54:26;;;;;;;5.33;1.97;;;13.80;99.90;;;;;;5064971;28;20451;-70
2021/04/11 07:57:28;;;;;;;5.30;2.60;;;13.80;99.90;;;;;;5061224;28;21003;-71
2021/04/11 08:00:24;;;;;;;6.03;2.47;;;13.90;99.90;;;;;;5064687;28;20424;-71
2021/04/11 08:03:34;;;;;;;10.77;2.10;;;13.90;99.90;;;;;;5061351;28;20491;-71
2021/04/11 08:06:47;;;;;;;3.50;2.23;;;13.90;99.90;;;;;;5054532;28;20530;-70
2021/04/11 08:09:46;;;;;;;3.80;2.40;;;14.00;99.90;;;;;;5054413;28;20453;-72
2021/04/11 08:13:09;;;;;;;2.67;1.70;;;14.00;99.90;;;;;;5059562;28;20918;-71
2021/04/11 08:16:04;;;;;;;5.43;1.90;;;14.00;99.90;;;;;;5058194;28;20470;-71
2021/04/11 08:19:11;;;;;;;5.03;2.27;;;14.00;99.90;;;;;;5057451;28;20462;-71
2021/04/11 08:22:06;;;;;;;4.80;2.23;;;14.00;99.90;;;;;;5061634;28;20447;-71
2021/04/11 08:25:11;;;;;;;2.70;1.70;;;14.00;99.90;;;;;;5060384;28;20500;-71
2021/04/11 08:28:27;;;;;;;6.80;2.53;;;14.10;99.90;;;;;;5065181;28;20559;-71
2021/04/11 08:31:48;;;;;;;5.53;2.20;;;14.20;99.90;;;;;;5058543;28;20487;-71
2021/04/11 08:34:58;;;;;;;4.77;2.20;;;14.30;99.90;;;;;;5056318;28;20429;-71
2021/04/11 08:38:10;;;;;;;4.20;2.10;;;14.50;99.90;;;;;;5061439;28;20450;-72
2021/04/11 08:41:34;;;;;;;5.30;1.97;;;14.60;99.20;;;;;;5061321;28;20417;-70
2021/04/11 08:44:35;;;;;;;6.17;2.20;;;14.80;97.60;;;;;;5055949;28;20478;-71
2021/04/11 08:47:30;;;;;;;5.33;2.40;;;14.80;96.20;;;;;;5063976;28;20438;-71
2021/04/11 08:50:19;;;;;;;9.20;2.43;;;14.90;96.30;;;;;;5067870;28;20560;-71
2021/04/11 08:53:14;;;;;;;3.70;2.50;;;15.00;96.10;;;;;;5061276;28;20477;-72
2021/04/11 08:56:06;;;;;;;3.57;1.70;;;15.00;96.10;;;;;;5058431;28;20501;-71
2021/04/11 08:59:01;;;;;;;3.00;1.87;;;15.00;95.30;;;;;;5059703;28;20666;-71
2021/04/11 09:02:06;;;;;;;4.10;1.90;;;14.90;95.20;;;;;;5060523;28;20493;-71
2021/04/11 09:04:57;;;;;;;3.33;1.87;;;14.90;95.30;;;;;;5059374;28;21015;-71
2021/04/11 09:08:03;;;;;;;3.63;1.97;;;14.90;95.90;;;;;;5064345;28;20449;-71
2021/04/11 09:11:12;;;;;;;8.23;1.73;;;15.00;95.50;;;;;;5065079;28;20486;-71
2021/04/11 09:14:19;;;;;;;5.30;2.60;;;15.20;96.30;;;;;;5065599;28;20528;-71
2021/04/11 09:17:15;;;;;;;6.60;1.77;;;15.40;95.40;;;;;;5066138;28;20545;-71
2021/04/11 09:20:09;;;;;;;5.53;3.07;;;15.50;94.10;;;;;;5065216;28;21069;-71
2021/04/11 09:23:11;;;;;;;15.33;2.13;;;15.70;95.50;;;;;;5069015;28;20472;-71
2021/04/11 09:26:06;;;;;;;6.03;2.20;;;15.70;92.80;;;;;;5056705;28;20514;-71
2021/04/11 09:29:00;;;;;;;2.80;1.70;;;15.60;92.40;;;;;;5067253;28;20466;-71
2021/04/11 09:31:58;;;;;;;7.93;2.37;;;15.70;93.60;;;;;;5063443;28;20823;-72
2021/04/11 09:35:12;;;;;;;3.57;1.90;;;15.70;92.10;;;;;;5059001;28;20453;-72
2021/04/11 09:38:18;;;;;;;4.93;2.13;;;15.70;90.80;;;;;;5065449;28;20413;-71
2021/04/11 09:41:39;;;;;;;5.47;2.47;;;15.70;92.10;;;;;;5063206;28;20444;-71
2021/04/11 09:44:57;;;;;;;6.33;2.60;;;15.70;91.00;;;;;;5056298;28;20441;-71
2021/04/11 09:48:08;;;;;;;3.80;2.23;;;15.80;91.00;;;;;;5066861;28;20495;-71
2021/04/11 09:51:05;;;;;;;7.13;2.87;;;15.80;91.20;;;;;;5034440;28;20457;-70
2021/04/11 09:54:23;;;;;;;5.50;2.63;;;15.90;90.70;;;;;;5063230;28;21065;-72
2021/04/11 09:57:40;;;;;;;5.13;2.37;;;15.90;90.70;;;;;;5066195;28;20497;-70
2021/04/11 10:00:33;;;;;;;4.53;1.80;;;15.90;89.50;;;;;;5012770;28;20459;-70
2021/04/11 10:03:36;;;;;;;4.63;1.90;;;15.90;90.60;;;;;;5060433;28;20989;-70
2021/04/11 10:06:43;;;;;;;3.90;2.30;;;15.90;87.80;;;;;;5061895;28;20494;-70
2021/04/11 10:09:44;;;;;;;6.53;2.30;;;15.80;87.80;;;;;;5066297;28;20822;-71
2021/04/11 10:12:51;;;;;;;5.57;3.00;;;15.80;89.50;;;;;;5058799;28;21119;-71
2021/04/11 10:15:43;;;;;;;5.07;2.57;;;15.80;89.50;;;;;;5059127;28;20451;-71
2021/04/11 10:19:04;;;;;;;5.00;2.33;;;15.80;89.50;;;;;;5063327;28;20470;-71
2021/04/11 10:22:02;;;;;;;16.20;3.07;;;15.80;90.70;;;;;;5069232;28;20454;-71
2021/04/11 10:24:58;;;;;;;5.90;2.60;;;15.80;89.00;;;;;;5060021;28;20494;-71
2021/04/11 10:27:57;;;;;;;3.80;2.37;;;15.70;89.30;;;;;;5062699;28;20572;-71
2021/04/11 10:30:44;;;;;;;6.30;2.50;;;15.70;90.50;;;;;;5062208;28;20581;-71
2021/04/11 10:33:39;;;;;;;6.27;2.33;;;15.70;90.90;;;;;;5061994;28;20509;-71
2021/04/11 10:36:34;;;;;;;8.10;2.43;;;15.60;91.20;;;;;;5060567;28;20816;-71
2021/04/11 10:39:28;;;;;;;5.60;2.30;;;15.50;90.40;;;;;;5061925;28;20453;-70
2021/04/11 10:42:30;;;;;;;3.37;2.10;;;15.50;91.00;;;;;;5062185;28;20515;-72
2021/04/11 10:45:29;;;;;;;3.33;2.13;;;15.50;90.50;;;;;;5058060;28;20428;-72
2021/04/11 10:48:40;;;;;;;4.67;2.73;;;15.40;90.60;;;;;;5054325;28;20534;-71
2021/04/11 10:51:46;;;;;;;5.17;2.30;;;15.30;90.60;;;;;;5065119;28;20459;-71
2021/04/11 10:55:05;;;;;;;4.23;2.33;;;15.30;90.90;;;;;;5064127;28;20463;-71
2021/04/11 10:58:13;;;;;;;3.30;1.93;;;15.20;91.40;;;;;;5062486;28;20438;-71
2021/04/11 11:01:15;;;;;;;3.90;2.20;;;15.20;91.70;;;;;;5057564;28;20444;-70
2021/04/11 11:04:41;;;;;;;2.50;1.77;;;15.20;91.40;;;;;;5066338;28;20487;-70
2021/04/11 11:07:57;;;;;;;8.60;2.70;;;15.30;91.90;;;;;;5053907;28;20460;-70
2021/04/11 11:11:00;;;;;;;4.90;2.40;;;15.30;91.70;;;;;;5061256;28;20418;-70
2021/04/11 11:14:12;;;;;;;6.53;3.30;;;15.30;92.30;;;;;;5055611;28;21323;-71
2021/04/11 11:17:14;;;;;;;3.93;2.00;;;15.30;91.90;;;;;;5064579;28;20449;-70
2021/04/11 11:20:22;;;;;;;6.13;2.23;;;15.20;91.90;;;;;;5065104;28;20446;-70
2021/04/11 11:23:34;;;;;;;4.30;2.30;;;15.20;92.90;;;;;;5055355;28;21057;-69
2021/04/11 11:26:47;;;;;;;5.23;2.20;;;15.20;92.50;;;;;;5059512;28;20998;-70
2021/04/11 11:30:05;;;;;;;5.63;2.77;;;15.20;92.70;;;;;;5056146;28;20433;-71
2021/04/11 11:33:02;;;;;;;3.17;1.60;;;15.20;92.70;;;;;;5062813;28;20508;-70
2021/04/11 11:35:54;;;;;;;4.10;2.07;;;15.20;93.30;;;;;;5055293;28;20939;-70
2021/04/11 11:38:49;;;;;;;7.17;2.50;;;15.20;92.90;;;;;;5056841;28;20975;-69
2021/04/11 11:41:47;;;;;;;4.63;2.30;;;15.20;93.10;;;;;;5059584;28;20437;-69
2021/04/11 11:44:37;;;;;;;7.10;1.67;;;15.30;93.60;;;;;;5059315;28;20799;-69
2021/04/11 11:47:28;;;;;;;3.77;1.90;;;15.30;93.20;;;;;;5058510;28;20856;-71
2021/04/11 11:50:23;;;;;;;8.00;1.70;;;15.40;92.90;;;;;;5059612;28;20443;-70
2021/04/11 11:53:15;;;;;;;3.70;1.70;;;15.40;93.20;;;;;;5060186;28;20453;-72
2021/04/11 11:56:20;;;;;;;6.70;2.00;;;15.50;93.10;;;;;;5064599;28;20786;-70
2021/04/11 11:59:16;;;;;;;3.90;1.63;;;15.60;92.50;;;;;;5057187;28;20441;-71
2021/04/11 12:02:09;;;;;;;6.40;2.20;;;15.60;92.80;;;;;;5051559;28;20461;-70
2021/04/11 12:05:06;;;;;;;4.60;2.10;;;15.80;91.70;;;;;;5060689;28;20466;-71
2021/04/11 12:08:03;;;;;;;2.83;1.70;;;16.10;92.80;;;;;;5054124;28;20988;-72
2021/04/11 12:10:57;;;;;;;3.50;1.80;;;16.60;92.00;;;;;;5063407;28;20483;-72
2021/04/11 12:13:47;;;;;;;4.10;1.70;;;16.70;85.60;;;;;;5064083;28;20513;-72
2021/04/11 12:16:38;;;;;;;3.20;1.73;;;16.60;80.30;;;;;;5065041;28;20447;-72
2021/04/11 12:19:31;;;;;;;4.90;1.70;;;16.60;81.10;;;;;;5065975;28;20558;-72
2021/04/11 12:22:20;;;;;;;3.73;1.50;;;16.40;80.10;;;;;;5068914;28;20438;-71
2021/04/11 12:25:13;;;;;;;3.63;1.80;;;16.30;80.90;;;;;;5066708;28;20988;-71
2021/04/11 12:28:13;;;;;;;4.50;1.67;;;16.30;83.10;;;;;;5066424;28;20485;-70
2021/04/11 12:31:13;;;;;;;4.50;1.57;;;16.30;83.00;;;;;;5060518;28;20481;-72
2021/04/11 12:34:04;;;;;;;3.57;1.80;;;16.30;82.20;;;;;;5064763;28;20448;-72
2021/04/11 12:36:58;;;;;;;3.90;1.80;;;16.30;83.10;;;;;;5060710;28;20463;-72
2021/04/11 12:39:45;;;;;;;5.93;1.77;;;16.10;83.20;;;;;;5063305;28;20450;-72
2021/04/11 12:42:35;;;;;;;7.80;1.67;;;16.00;80.70;;;;;;5065540;28;20517;-70
2021/04/11 12:45:27;;;;;;;4.20;1.63;;;15.90;82.80;;;;;;5065241;28;21015;-72
2021/04/11 12:48:26;;;;;;;3.83;1.63;;;15.70;83.50;;;;;;5064428;28;20967;-72
2021/04/11 12:51:20;;;;;;;4.47;2.07;;;15.70;84.30;;;;;;5062013;28;20979;-72
2021/04/11 12:54:12;;;;;;;3.33;1.80;;;15.60;84.90;;;;;;5065555;28;20549;-71
2021/04/11 12:57:02;;;;;;;3.00;1.40;;;15.50;90.00;;;;;;5057660;28;20857;-71
2021/04/11 12:59:56;;;;;;;3.53;2.00;;;15.40;91.80;;;;;;5057608;28;20517;-70
2021/04/11 13:02:50;;;;;;;4.37;1.87;;;15.40;93.70;;;;;;5062488;28;20460;-71
2021/04/11 13:05:40;;;;;;;3.43;1.97;;;15.40;94.90;;;;;;5060709;28;20628;-71
2021/04/11 13:08:46;;;;;;;6.80;1.87;;;15.40;95.20;;;;;;5060250;28;20469;-71
2021/04/11 13:11:40;;;;;;;6.60;1.90;;;15.50;95.90;;;;;;5069043;28;20513;-72
2021/04/11 13:14:32;;;;;;;4.50;2.00;;;15.60;96.10;;;;;;5059604;28;20551;-72
2021/04/11 13:17:25;;;;;;;7.13;1.90;;;15.60;95.50;;;;;;5061256;28;20961;-71
2021/04/11 13:20:17;;;;;;;4.43;2.57;;;15.60;95.80;;;;;;5058807;28;20459;-72
2021/04/11 13:23:06;;;;;;;2.97;1.70;;;15.70;96.60;;;;;;5064369;28;20517;-72
2021/04/11 13:26:00;;;;;;;3.80;1.50;;;15.80;96.10;;;;;;5062185;28;20846;-71
2021/04/11 13:28:54;;;;;;;4.73;1.77;;;15.80;95.50;;;;;;5057766;28;20453;-71
2021/04/11 13:31:44;;;;;;;2.90;1.60;;;15.80;96.20;;;;;;5061680;28;20500;-71
2021/04/11 13:34:38;;;;;;;2.20;1.40;;;15.80;95.10;;;;;;5056259;28;20475;-72
2021/04/11 13:37:25;;;;;;;3.43;1.33;;;15.80;95.00;;;;;;5061624;28;20451;-72
2021/04/11 13:40:16;;;;;;;2.60;1.47;;;15.70;94.80;;;;;;5065010;28;20460;-70
2021/04/11 13:43:25;;;;;;;3.57;1.57;;;15.40;96.00;;;;;;5062217;28;21019;-71
2021/04/11 13:46:18;;;;;;;4.27;2.13;;;15.30;96.40;;;;;;5055218;28;20508;-71
2021/04/11 13:49:13;;;;;;;4.50;2.13;;;15.30;98.30;;;;;;5057541;28;20459;-72
2021/04/11 13:52:06;;;;;;;3.93;2.10;;;15.40;98.60;;;;;;5056889;28;20494;-72
2021/04/11 13:55:00;;;;;;;5.57;2.30;;;15.40;98.50;;;;;;5059518;28;20441;-72
2021/04/11 13:57:55;;;;;;;3.77;2.10;;;15.30;99.10;;;;;;5058419;28;20435;-71
2021/04/11 14:00:47;;;;;;;3.10;2.10;;;15.20;99.00;;;;;;5058509;28;20477;-70
2021/04/11 14:03:45;;;;;;;4.47;2.47;;;15.10;99.40;;;;;;5053442;28;20569;-73
2021/04/11 14:06:32;;;;;;;3.30;2.23;;;15.00;99.90;;;;;;5064315;28;20477;-71
2021/04/11 14:09:24;;;;;;;4.23;2.33;;;15.00;99.90;;;;;;5064643;28;20450;-71
2021/04/11 14:12:13;;;;;;;3.90;2.17;;;14.90;99.90;;;;;;5059862;28;20437;-71
2021/04/11 14:15:05;;;;;;;3.83;2.40;;;14.60;99.90;;;;;;5059115;28;20499;-71
2021/04/11 14:18:04;;;;;;;2.80;1.50;;;14.40;99.90;;;;;;5063568;28;20546;-71
2021/04/11 14:20:54;;;;;;;2.40;1.30;;;14.20;99.90;;;;;;5062186;28;20430;-71
2021/04/11 14:24:05;;;;;;;2.97;1.20;;;14.10;99.90;;;;;;5062780;28;20892;-71
2021/04/11 14:26:55;;;;;;;2.00;1.23;;;14.00;99.90;;;;;;5060147;28;20430;-71
2021/04/11 14:29:49;;;;;;;2.40;1.10;;;13.80;99.90;;;;;;5053091;28;20430;-72
2021/04/11 14:32:38;;;;;;;6.80;1.73;;;13.80;99.90;;;;;;5057819;28;20474;-71
2021/04/11 14:35:30;;;;;;;5.00;1.53;;;13.70;99.90;;;;;;5056826;28;20521;-72
2021/04/11 14:38:25;;;;;;;4.10;2.13;;;13.50;99.90;;;;;;5060906;28;20420;-72
2021/04/11 14:41:12;;;;;;;4.67;2.13;;;13.40;99.90;;;;;;5063256;28;20450;-71
2021/04/11 14:44:00;;;;;;;3.50;2.17;;;13.30;99.90;;;;;;5056459;28;20516;-72
2021/04/11 14:46:49;;;;;;;10.10;2.40;;;13.30;99.90;;;;;;5060797;28;20450;-72
2021/04/11 14:49:34;;;;;;;8.27;4.80;;;13.30;99.90;;;;;;5068026;28;20512;-72
2021/04/11 14:52:31;;;;;;;8.27;4.20;;;13.10;99.90;;;;;;5061767;28;20450;-72
2021/04/11 14:55:25;;;;;;;6.97;4.23;;;13.00;99.90;;;;;;5062770;28;20425;-71
2021/04/11 14:58:25;;;;;;;5.03;3.47;;;13.00;99.90;;;;;;5061982;28;20470;-71
2021/04/11 15:01:17;;;;;;;9.43;5.00;;;13.00;99.90;;;;;;5053569;28;20458;-71
2021/04/11 15:04:23;;;;;;;17.67;8.93;;;13.10;99.90;;;;;;5055750;28;20510;-71
2021/04/11 15:07:18;;;;;;;9.00;5.73;;;12.90;99.90;;;;;;5059148;28;20763;-71
2021/04/11 15:10:16;;;;;;;9.80;6.83;;;12.80;99.90;;;;;;5060510;28;20492;-71
2021/04/11 15:13:07;;;;;;;27.20;12.90;;;12.80;99.90;;;;;;5060026;28;20486;-70
2021/04/11 15:16:01;;;;;;;6.30;4.37;;;12.70;99.90;;;;;;5057816;28;20459;-72